Latest Weather Observations for Leigh Creek

IDS60801

Issued at 4:31 pm CST Monday 6 July 2015 (issued every 30 minutes, with the page automatically refreshed every 10 minutes)

About weather observations | Map of weather stations | Latest weather observations for SA | Other Formats
Station Details ID: 017110 Name: LEIGH CREEK AIRPORT Lat: -30.60 Lon: 138.42 Height: 258.8 m
Data from the previous 72 hours. | See also: Recent months at Leigh Creek
Date/Time
CST
Temp
°C
App
Temp
°C
Dew
Point
Rel
Hum
%
Delta-T
°C
Wind Press
QNH
hPa
Press
MSL
hPa
Rain
since 9 am
mm
Dir
 
Spd
km/h
Gust
km/h
Spd
kts
Gust
kts
06/04:30pm 17.1 12.9 3.8 41 6.3 WSW 15 20 8 11 1018.8 1019.0 0.0
06/04:00pm 17.7 12.6 3.2 38 6.8 W 19 22 10 12 1018.6 1018.8 0.0
06/03:30pm 17.8 13.1 2.9 37 6.9 W 17 24 9 13 1018.5 1018.7 0.0
06/03:00pm 18.2 13.8 2.9 36 7.1 WNW 15 20 8 11 1018.5 1018.7 0.0
06/02:30pm 18.1 13.3 2.4 35 7.2 WNW 17 28 9 15 1018.6 1018.8 0.0
06/02:00pm 18.2 14.2 2.9 36 7.2 NW 13 24 7 13 1018.6 1018.8 0.0
06/01:30pm 17.4 12.3 3.0 38 6.7 NW 19 24 10 13 1018.9 1019.1 0.0
06/01:00pm 17.0 12.3 3.0 39 6.5 WNW 17 22 9 12 1019.4 1019.6 0.0
06/12:30pm 16.9 13.0 3.2 40 6.4 WNW 13 20 7 11 1019.7 1019.9 0.0
06/12:00pm 16.4 12.5 3.5 42 6.0 NNW 13 17 7 9 1020.1 1020.3 0.0
06/11:30am 15.6 11.8 3.7 45 5.5 NNW 13 17 7 9 1020.3 1020.5 0.0
06/11:00am 14.6 10.7 3.4 47 5.1 NNW 13 15 7 8 1020.5 1020.8 0.0
06/10:30am 14.0 10.1 3.5 49 4.8 NNW 13 15 7 8 1021.0 1021.2 0.0
06/10:00am 13.5 10.3 3.3 50 4.6 NNE 9 15 5 8 1020.9 1021.1 0.0
06/09:30am 11.3 8.7 4.3 62 3.2 ESE 7 9 4 5 1021.0 1021.2 0.0
06/09:00am 9.3 6.6 3.9 69 2.4 E 7 9 4 5 1021.0 1021.2 0.0
06/08:30am 6.0 3.2 3.0 81 1.3 ESE 7 9 4 5 1021.1 1021.3 0.0
06/08:00am 4.7 2.3 2.2 84 1.0 ESE 4 7 2 4 1020.8 1021.0 0.0
06/07:30am 3.0 -0.9 1.2 88 0.7 SSW 11 13 6 7 1020.4 1020.6 0.0
06/07:00am 3.2 0.1 1.6 89 0.6 SSW 7 13 4 7 1020.0 1020.2 0.0
06/06:30am 3.1 -0.7 1.5 89 0.6 E 11 15 6 8 1019.2 1019.4 0.0
06/06:00am 2.5 -0.7 0.6 87 0.7 SE 7 9 4 5 1019.3 1019.5 0.0
06/05:30am 3.5 -0.3 1.9 89 0.6 ESE 11 15 6 8 1019.1 1019.3 0.0
06/05:00am 2.3 -0.8 0.0 85 0.9 SE 6 7 3 4 1019.2 1019.4 0.0
06/04:30am 3.5 0.5 1.7 88 0.7 SSE 7 9 4 5 1019.4 1019.6 0.0
06/04:00am 4.0 0.2 1.9 86 0.8 SE 11 13 6 7 1019.3 1019.5 0.0
06/03:30am 4.1 0.7 2.0 86 0.8 ESE 9 13 5 7 1019.4 1019.6 0.0
06/03:00am 3.7 0.3 1.6 86 0.8 ESE 9 11 5 6 1019.5 1019.7 0.0
06/02:30am 4.0 2.3 1.9 86 0.8 CALM 0 0 0 0 1019.7 1019.9 0.0
06/02:00am 4.5 2.9 2.2 85 0.9 CALM 0 0 0 0 1019.9 1020.1 0.0
06/01:30am 4.8 1.5 2.3 84 1.0 ESE 9 13 5 7 1020.0 1020.2 0.0
06/01:00am 4.8 0.7 2.2 83 1.1 ESE 13 13 7 7 1020.2 1020.4 0.0
06/12:30am 5.1 1.4 2.3 82 1.1 ESE 11 13 6 7 1020.2 1020.4 0.0
06/12:00am 5.3 2.0 2.5 82 1.2 SE 9 11 5 6 1020.4 1020.6 0.0
 
Date/Time
CST
Temp
°C
App
Temp
°C
Dew
Point
Rel
Hum
%
Delta-T
°C
Wind Press
QNH
hPa
Press
MSL
hPa
Rain
since 9 am
mm
Dir
 
Spd
km/h
Gust
km/h
Spd
kts
Gust
kts
05/11:30pm 5.5 2.8 2.7 82 1.2 ESE 6 9 3 5 1020.5 1020.8 0.0
05/11:00pm 5.7 2.8 2.5 80 1.3 ESE 7 9 4 5 1020.5 1020.8 0.0
05/10:30pm 6.0 4.4 2.6 79 1.4 CALM 0 0 0 0 1020.5 1020.8 0.0
05/10:00pm 7.0 5.5 3.1 76 1.7 CALM 0 0 0 0 1020.5 1020.8 0.0
05/09:30pm 7.2 4.0 2.9 74 1.8 WNW 9 9 5 5 1020.4 1020.6 0.0
05/09:00pm 7.8 5.2 3.3 73 1.9 WNW 6 6 3 3 1020.4 1020.6 0.0
05/08:30pm 7.2 5.6 2.5 72 2.0 CALM 0 0 0 0 1020.3 1020.5 0.0
05/08:00pm 9.1 6.3 3.1 66 2.6 WNW 7 9 4 5 1020.1 1020.3 0.0
05/07:30pm 9.0 6.4 3.0 66 2.6 WNW 6 11 3 6 1020.1 1020.3 0.0
05/07:00pm 10.4 7.2 3.0 60 3.2 WNW 9 9 5 5 1020.2 1020.4 0.0
05/06:30pm 11.3 8.5 2.9 56 3.7 WNW 7 9 4 5 1020.1 1020.3 0.0
05/06:00pm 11.8 9.2 3.1 55 3.9 WNW 6 7 3 4 1019.7 1019.9 0.0
05/05:30pm 13.2 10.0 3.0 50 4.6 WNW 9 11 5 6 1019.7 1019.9 0.0
05/05:00pm 14.5 10.9 3.0 46 5.2 NW 11 13 6 7 1019.5 1019.7 0.0
05/04:30pm 15.3 11.3 3.1 44 5.6 W 13 15 7 8 1019.5 1019.7 0.0
05/04:00pm 15.3 11.3 3.1 44 5.6 W 13 19 7 10 1019.5 1019.7 0.0
05/03:30pm 15.4 12.1 2.6 42 5.8 W 9 17 5 9 1019.6 1019.8 0.0
05/03:00pm 15.7 12.5 3.2 43 5.8 W 9 15 5 8 1019.8 1020.0 0.0
05/02:30pm 15.3 12.1 2.8 43 5.7 W 9 13 5 7 1019.9 1020.1 0.0
05/02:00pm 14.9 11.7 2.8 44 5.5 WSW 9 15 5 8 1020.0 1020.2 0.0
05/01:30pm 14.8 12.2 3.0 45 5.4 S 6 15 3 8 1020.4 1020.6 0.0
05/01:00pm 14.9 11.3 3.1 45 5.4 W 11 15 6 8 1021.0 1021.2 0.0
05/12:30pm 14.5 11.3 3.3 47 5.1 SW 9 15 5 8 1021.4 1021.6 0.0
05/12:00pm 14.5 11.7 3.0 46 5.2 NW 7 13 4 7 1022.0 1022.2 0.0
05/11:30am 13.7 11.9 3.2 49 4.7 W 2 7 1 4 1022.3 1022.5 0.0
05/11:00am 13.0 10.4 3.1 51 4.5 NNW 6 11 3 6 1022.6 1022.8 0.0
05/10:30am 12.2 10.4 3.2 54 4.0 WSW 2 9 1 5 1023.0 1023.2 0.0
05/10:00am 10.6 9.0 2.7 58 3.5 CALM 0 0 0 0 1023.1 1023.3 0.0
05/09:30am 9.7 7.9 3.7 66 2.6 SE 2 6 1 3 1023.0 1023.2 0.0
05/09:00am 7.3 5.2 3.9 79 1.5 SE 4 7 2 4 1022.8 1023.0 0.0
05/08:30am 5.2 2.6 3.2 87 0.8 SE 6 7 3 4 1022.9 1023.1 0.0
05/08:00am 3.1 -0.4 1.5 89 0.6 ESE 9 13 5 7 1022.6 1022.8 0.0
05/07:30am 2.5 -1.0 1.2 91 0.5 SE 9 11 5 6 1022.6 1022.8 0.0
05/07:00am 2.1 -2.2 0.9 92 0.5 ESE 13 13 7 7 1022.6 1022.8 0.0
05/06:30am 2.8 -0.6 1.8 93 0.4 ESE 9 11 5 6 1022.5 1022.7 0.0
05/06:00am 2.4 0.6 1.2 92 0.5 CALM 0 6 0 3 1022.6 1022.8 0.0
05/05:30am 2.5 0.7 1.3 92 0.5 CALM 0 0 0 0 1022.3 1022.5 0.0
05/05:00am 2.6 0.4 1.3 91 0.5 SE 2 6 1 3 1022.0 1022.2 0.0
05/04:30am 3.3 -0.1 1.8 90 0.6 ESE 9 11 5 6 1022.0 1022.2 0.0
05/04:00am 3.5 0.1 1.9 89 0.6 ESE 9 11 5 6 1022.1 1022.3 0.0
05/03:30am 3.9 -0.2 2.1 88 0.7 E 13 13 7 7 1022.0 1022.2 0.0
05/03:00am 3.4 -0.4 1.6 88 0.7 E 11 13 6 7 1022.2 1022.4 0.0
05/02:30am 3.6 1.1 1.5 86 0.8 SE 4 11 2 6 1022.4 1022.6 0.0
05/02:00am 3.8 0.4 1.7 86 0.8 SW 9 11 5 6 1022.5 1022.7 0.0
05/01:30am 4.8 3.2 2.3 84 1.0 CALM 0 0 0 0 1022.4 1022.6 0.0
05/01:00am 5.1 3.6 3.0 86 0.9 CALM 0 0 0 0 1022.4 1022.6 0.0
05/12:30am 4.8 2.7 1.6 80 1.3 SW 2 6 1 3 1022.4 1022.6 0.0
05/12:00am 6.9 5.4 3.2 77 1.6 CALM 0 0 0 0 1022.6 1022.8 0.0
 
Date/Time
CST
Temp
°C
App
Temp
°C
Dew
Point
Rel
Hum
%
Delta-T
°C
Wind Press
QNH
hPa
Press
MSL
hPa
Rain
since 9 am
mm
Dir
 
Spd
km/h
Gust
km/h
Spd
kts
Gust
kts
04/11:30pm 6.0 3.3 2.6 79 1.4 SW 6 9 3 5 1023.0 1023.2 0.0
04/11:00pm 5.8 3.5 2.6 80 1.3 SW 4 9 2 5 1022.9 1023.1 0.0
04/10:30pm 7.0 4.2 3.1 76 1.7 ESE 7 11 4 6 1022.8 1023.0 0.0
04/10:00pm 6.2 4.6 2.3 76 1.6 CALM 0 4 0 2 1022.9 1023.1 0.0
04/09:30pm 6.9 4.0 2.4 73 1.9 ESE 7 9 4 5 1022.9 1023.1 0.0
04/09:00pm 8.2 5.0 2.9 69 2.3 ESE 9 11 5 6 1022.8 1023.0 0.0
04/08:30pm 8.7 5.5 2.9 67 2.5 SSW 9 13 5 7 1023.0 1023.2 0.0
04/08:00pm 9.5 6.7 3.0 64 2.8 SSW 7 9 4 5 1022.9 1023.1 0.0
04/07:30pm 10.2 6.7 3.3 62 3.0 SSW 11 13 6 7 1022.8 1023.0 0.0
04/07:00pm 9.9 6.6 2.7 61 3.1 SSW 9 11 5 6 1022.6 1022.8 0.0
04/06:30pm 10.4 6.8 3.0 60 3.2 SSW 11 13 6 7 1022.4 1022.6 0.0
04/06:00pm 11.1 7.5 2.9 57 3.6 SSW 11 13 6 7 1022.4 1022.6 0.0
04/05:30pm 12.5 8.9 3.2 53 4.2 SSW 11 13 6 7 1022.3 1022.5 0.0
04/05:00pm 13.9 10.8 3.4 49 4.8 SSW 9 11 5 6 1022.2 1022.4 0.0
04/04:30pm 14.5 10.5 3.0 46 5.2 SSW 13 17 7 9 1022.0 1022.2 0.0
04/04:00pm 15.3 11.4 3.5 45 5.5 SW 13 20 7 11 1021.7 1021.9 0.0
04/03:30pm 15.4 12.2 3.2 44 5.6 S 9 15 5 8 1021.9 1022.1 0.0
04/03:00pm 15.3 12.7 3.1 44 5.6 S 6 13 3 7 1022.0 1022.2 0.0
04/02:30pm 15.8 13.6 3.6 44 5.7 SSE 4 15 2 8 1022.2 1022.4 0.0
04/02:00pm 15.0 11.9 3.5 46 5.3 S 9 17 5 9 1022.5 1022.7 0.0
04/01:30pm 15.2 13.0 3.4 45 5.4 ESE 4 9 2 5 1023.1 1023.3 0.0
04/01:00pm 14.9 12.8 3.7 47 5.2 WNW 4 13 2 7 1023.5 1023.7 0.0
04/12:30pm 14.1 12.6 3.0 47 5.0 CALM 0 0 0 0 1024.0 1024.3 0.0
04/12:00pm 13.6 10.8 3.1 49 4.7 NNW 7 13 4 7 1024.7 1024.9 0.0
04/11:30am 13.3 10.5 3.1 50 4.6 N 7 13 4 7 1025.1 1025.3 0.0
04/11:00am 12.7 8.7 2.8 51 4.4 NNW 13 17 7 9 1025.5 1025.7 0.0
04/10:30am 12.1 8.2 3.6 56 3.8 N 13 17 7 9 1025.8 1026.0 0.0
04/10:00am 12.2 9.2 3.9 57 3.8 NNW 9 13 5 7 1025.9 1026.1 0.0
04/09:30am 10.5 9.5 5.5 71 2.3 CALM 0 0 0 0 1025.9 1026.1 0.0
04/09:00am 7.1 4.6 4.6 84 1.1 ESE 7 9 4 5 1025.8 1026.0 0.0
04/08:30am 7.1 5.8 4.2 82 1.3 CALM 0 0 0 0 1025.7 1025.9 0.0
04/08:00am 6.3 3.8 4.0 85 1.0 ESE 6 7 3 4 1025.5 1025.7 0.0
04/07:30am 5.4 2.6 3.4 87 0.8 ESE 7 9 4 5 1025.3 1025.5 0.0
04/07:00am 5.5 2.3 3.3 86 0.9 SE 9 11 5 6 1024.8 1025.0 0.0
04/06:30am 4.8 3.3 3.1 89 0.7 CALM 0 0 0 0 1024.5 1024.8 0.0
04/06:00am 4.3 2.8 2.8 90 0.6 CALM 0 0 0 0 1024.2 1024.5 0.0
04/05:30am 4.3 0.6 2.5 88 0.7 ESE 11 11 6 6 1024.0 1024.3 0.0
04/05:00am 4.1 0.8 2.6 90 0.6 SE 9 9 5 5 1023.9 1024.2 0.0
04/04:30am 4.3 2.7 2.5 88 0.7 CALM 0 0 0 0 1023.9 1024.2 0.0
04/04:00am 5.5 4.1 3.3 86 0.9 CALM 0 0 0 0 1023.9 1024.2 0.0
04/03:30am 5.2 3.6 2.7 84 1.0 CALM 0 0 0 0 1023.8 1024.1 0.0
04/03:00am 4.3 2.6 1.7 83 1.0 CALM 0 0 0 0 1023.8 1024.1 0.0
04/02:30am 5.9 4.4 3.2 83 1.1 CALM 0 0 0 0 1024.0 1024.3 0.0
04/02:00am 5.7 3.5 3.2 84 1.1 SE 4 6 2 3 1024.3 1024.6 0.0
04/01:30am 6.0 4.5 3.2 82 1.2 CALM 0 0 0 0 1024.4 1024.7 0.0
04/01:00am 6.2 4.7 3.0 80 1.4 CALM 0 0 0 0 1024.7 1024.9 0.0
04/12:30am 6.4 4.9 3.2 80 1.4 CALM 0 0 0 0 1024.9 1025.1 0.0
04/12:00am 6.5 5.1 3.3 80 1.4 CALM 0 0 0 0 1025.2 1025.4 0.0
 
Date/Time
CST
Temp
°C
App
Temp
°C
Dew
Point
Rel
Hum
%
Delta-T
°C
Wind Press
QNH
hPa
Press
MSL
hPa
Rain
since 9 am
mm
Dir
 
Spd
km/h
Gust
km/h
Spd
kts
Gust
kts
03/11:30pm 7.5 6.2 3.9 78 1.6 CALM 0 0 0 0 1025.3 1025.5 0.0
03/11:00pm 7.8 4.7 3.8 76 1.7 SE 9 11 5 6 1025.5 1025.7 0.0
03/10:30pm 8.3 4.6 4.3 76 1.8 ESE 13 15 7 8 1025.7 1025.9 0.0
03/10:00pm 8.9 5.6 4.5 74 2.0 ESE 11 13 6 7 1025.9 1026.1 0.0
03/09:30pm 9.2 6.7 4.6 73 2.1 SE 7 9 4 5 1025.9 1026.1 0.0
03/09:00pm 10.4 8.9 5.0 69 2.5 S 2 13 1 7 1025.9 1026.1 0.0
03/08:30pm 11.2 9.3 4.9 65 2.9 S 4 9 2 5 1025.9 1026.1 0.0
03/08:00pm 11.6 9.3 4.8 63 3.1 S 6 9 3 5 1025.9 1026.1 0.0
03/07:30pm 11.9 8.7 4.9 62 3.2 S 11 15 6 8 1025.9 1026.1 0.0
03/07:00pm 12.2 8.2 5.1 62 3.3 S 15 19 8 10 1025.8 1026.0 0.0
03/06:30pm 12.6 9.7 4.8 59 3.6 S 9 13 5 7 1025.6 1025.8 0.0
03/06:00pm 13.3 10.4 4.5 55 4.1 S 9 11 5 6 1025.5 1025.7 0.0
03/05:30pm 14.5 10.8 4.5 51 4.7 S 13 17 7 9 1025.4 1025.6 0.0
03/05:00pm 15.5 11.9 4.8 49 5.1 S 13 20 7 11 1025.4 1025.6 0.0

Other Formats:

Comma delimited format used in spreadsheet applications
http://www.bom.gov.au/fwo/IDS60801/IDS60801.94674.axf

JavaScript Object Notation format (JSON) in row-major order
http://www.bom.gov.au/fwo/IDS60801/IDS60801.94674.json